Tuesday, August 21, 2018, 9:55 AM EDT
Back to Local

KEWR, Newark International Airport

Location: Elizabeth, NJ, United States Lat: 40.683
Local Time: 9:55 AM EDT (13:55 GMT) Lon: -74.167
Time Zone: US/Eastern Elev: 16 ft

Show me the last for .
Show Decoded

2018-08-21 08:51 METAR KEWR 211251Z 07006KT 10SM FEW020 BKN060 22/17 A3010 RMK AO2 SLP191
                 T02170167 =
2018-08-21 07:51 METAR KEWR 211151Z 10008KT 10SM FEW070 SCT250 22/17 A3010 RMK AO2 SLP193
                 T02170167 10217 20206 55002 =
2018-08-21 06:51 METAR KEWR 211051Z 07006KT 10SM FEW070 FEW250 21/17 A3010 RMK AO2 SLP192
                 T02060172 =
2018-08-21 05:51 METAR KEWR 210951Z 07004KT 10SM FEW015 FEW070 SCT250 21/17 A3011 RMK AO2 SLP194
                 T02110172 =
2018-08-21 04:51 METAR KEWR 210851Z 12003KT 10SM FEW013 FEW070 SCT250 21/17 A3011 RMK AO2 SLP195
                 T02110172 55010 =
2018-08-21 03:51 METAR KEWR 210751Z 10004KT 10SM FEW013 FEW040 SCT070 SCT250 21/18 A3011 RMK AO2
                 SLP194 T02110183 =
2018-08-21 02:51 METAR KEWR 210651Z 11005KT 10SM FEW018 BKN040 BKN070 BKN250 22/18 A3012 RMK AO2
                 SLP199 T02170183 =
2018-08-21 00:51 METAR KEWR 210451Z 10003KT 10SM SCT026 BKN040 BKN070 BKN250 22/18 A3014 RMK AO2
                 SLP207 T02170178 402390200 =
2018-08-20 23:51 METAR KEWR 210351Z 15004KT 10SM FEW011 SCT040 BKN075 BKN250 22/18 A3015 RMK AO2
                 SLP208 T02170178 =
2018-08-20 22:51 METAR KEWR 210251Z 16003KT 10SM FEW010 SCT038 BKN075 BKN250 22/18 A3014 RMK AO2
                 SLP207 T02220183 51008 =
2018-08-20 21:51 METAR KEWR 210151Z 15004KT 10SM FEW010 FEW025 SCT070 BKN250 22/18 A3014 RMK AO2
                 SLP206 T02220183 =
2018-08-20 20:51 METAR KEWR 210051Z 14003KT 10SM FEW010 FEW025 BKN075 22/18 A3013 RMK AO2 SLP203
                 T02220183 =
2018-08-20 19:51 METAR KEWR 202351Z 16003KT 10SM FEW018 FEW025 BKN075 BKN250 22/18 A3012 RMK AO2
                 SLP199 T02220183 10239 20222 51004 =
2018-08-20 18:51 METAR KEWR 202251Z 15005KT 10SM FEW018 SCT025 BKN075 BKN250 23/18 A3011 RMK AO2
                 SLP197 T02280183 =
2018-08-20 17:51 METAR KEWR 202151Z 16006KT 10SM FEW018 SCT025 BKN048 BKN250 23/19 A3012 RMK AO2
                 SLP197 T02330189 =
2018-08-20 16:51 METAR KEWR 202051Z 14005KT 10SM FEW025 SCT037 BKN048 BKN250 23/18 A3011 RMK AO2
                 SLP194 T02330183 58013 =
2018-08-20 15:51 METAR KEWR 201951Z 08005KT 10SM SCT025 BKN037 OVC050 24/18 A3012 RMK AO2 SLP199
                 SCT V BKN T02390178 =
2018-08-20 14:51 METAR KEWR 201851Z 06005KT 10SM SCT025 BKN030 OVC039 24/18 A3014 RMK AO2 SLP205
                 T02390178 =
2018-08-20 13:51 METAR KEWR 201751Z 07006KT 10SM FEW015 BKN024 OVC037 23/17 A3015 RMK AO2 SLP208
                 T02280172 10233 20206 51006 =
2018-08-20 12:51 METAR KEWR 201651Z 07006KT 10SM FEW014 BKN018 OVC080 23/17 A3014 RMK AO2 SLP205
                 T02280172 =
2018-08-20 11:51 METAR KEWR 201551Z 06006KT 10SM SCT014 BKN018 OVC080 23/17 A3014 RMK AO2 SLP205
                 T02280172 =
2018-08-20 10:51 METAR KEWR 201451Z 04013KT 10SM BKN020 BKN031 BKN080 23/18 A3013 RMK AO2 SLP201
                 BKN020 V SCT T02280178 50000 =

Support USWX by starting your Amazon purchase here.